createdAt,value
2022-12-09T00:00:38.685Z,30.63
2022-12-09T00:01:38.678Z,30.44
2022-12-09T00:02:38.831Z,30.63
2022-12-09T00:03:38.537Z,30.54
2022-12-09T00:04:38.582Z,31.77
2022-12-09T00:05:38.350Z,31.77
2022-12-09T00:06:38.385Z,33.19
2022-12-09T00:07:38.436Z,33.95
2022-12-09T00:08:38.487Z,35.94
2022-12-09T00:09:38.258Z,35.38
2022-12-09T00:10:38.273Z,35.94
2022-12-09T00:11:38.412Z,35.47
2022-12-09T00:12:38.154Z,35.18
2022-12-09T00:13:38.426Z,35.18
2022-12-09T00:14:38.115Z,34.61
2022-12-09T00:15:38.144Z,34.33
2022-12-09T00:16:38.213Z,34.23
2022-12-09T00:17:38.321Z,34.61
2022-12-09T00:18:38.245Z,35.47
2022-12-09T00:19:38.221Z,36.04
2022-12-09T00:20:38.183Z,36.89
2022-12-09T00:21:38.100Z,38.31
2022-12-09T00:22:37.939Z,38.12
2022-12-09T00:23:37.877Z,36.99
2022-12-09T00:24:37.854Z,36.32
2022-12-09T00:25:37.828Z,34.80
2022-12-09T00:26:38.032Z,33.46
2022-12-09T00:27:37.788Z,32.98
2022-12-09T00:28:37.755Z,32.14
2022-12-09T00:29:37.756Z,29.29
2022-12-09T00:30:37.806Z,27.96
2022-12-09T00:31:37.782Z,26.35
2022-12-09T00:32:37.971Z,24.46
2022-12-09T00:33:37.747Z,23.03
2022-12-09T00:34:37.658Z,22.65
2022-12-09T00:35:37.778Z,23.03
2022-12-09T00:36:37.717Z,23.32
2022-12-09T00:37:37.667Z,21.70
2022-12-09T00:38:37.786Z,20.85
2022-12-09T00:39:37.477Z,19.62
2022-12-09T00:40:37.493Z,18.96
2022-12-09T00:41:37.537Z,17.82
2022-12-09T00:42:37.626Z,16.78
2022-12-09T00:43:37.523Z,16.49
2022-12-09T00:44:37.355Z,16.30
2022-12-09T00:45:37.357Z,16.30
2022-12-09T00:46:37.377Z,16.49
2022-12-09T00:47:37.398Z,16.87
2022-12-09T00:48:37.293Z,16.78
2022-12-09T00:49:37.260Z,17.72
2022-12-09T00:50:37.201Z,17.91
2022-12-09T00:51:37.399Z,18.01
2022-12-09T00:52:37.193Z,18.10
2022-12-09T00:53:37.197Z,18.39
2022-12-09T00:54:37.214Z,18.67
2022-12-09T00:55:37.349Z,18.86
2022-12-09T00:56:37.332Z,19.43
2022-12-09T00:57:37.117Z,19.81
2022-12-09T00:58:37.007Z,20.66
2022-12-09T00:59:37.014Z,20.76
2022-12-09T01:00:36.954Z,21.70
2022-12-09T01:01:37.316Z,22.56
2022-12-09T01:02:37.390Z,23.32
2022-12-09T01:03:37.072Z,22.65
2022-12-09T01:04:37.231Z,21.70
2022-12-09T01:05:36.919Z,20.76
2022-12-09T01:06:36.802Z,20.47
2022-12-09T01:07:36.973Z,20.76
2022-12-09T01:08:39.079Z,21.61
2022-12-09T01:09:36.805Z,22.08
2022-12-09T01:10:36.850Z,21.61
2022-12-09T01:11:36.680Z,22.18
2022-12-09T01:12:36.675Z,22.75
2022-12-09T01:13:36.621Z,22.18
2022-12-09T01:14:36.596Z,21.14
2022-12-09T01:15:36.703Z,21.51
2022-12-09T01:16:36.669Z,21.51
2022-12-09T01:17:36.829Z,21.34
2022-12-09T01:18:36.524Z,21.62
2022-12-09T01:19:36.472Z,21.24
2022-12-09T01:20:36.459Z,22.00
2022-12-09T01:21:36.431Z,21.81
2022-12-09T01:22:36.400Z,22.09
2022-12-09T01:23:36.567Z,22.76
2022-12-09T01:24:36.347Z,23.24
2022-12-09T01:25:36.320Z,24.56
2022-12-09T01:26:36.358Z,25.79
2022-12-09T01:27:36.274Z,25.97
2022-12-09T01:28:36.489Z,25.97
2022-12-09T01:29:36.283Z,25.79
2022-12-09T01:30:36.561Z,25.78
2022-12-09T01:31:36.642Z,25.40
2022-12-09T01:32:36.541Z,24.85
2022-12-09T01:33:36.159Z,24.17
2022-12-09T01:34:36.462Z,23.60
2022-12-09T01:35:36.081Z,23.80
2022-12-09T01:36:36.242Z,23.33
2022-12-09T01:37:36.142Z,24.18
2022-12-09T01:38:36.343Z,24.94
2022-12-09T01:39:36.263Z,25.79
2022-12-09T01:40:35.943Z,25.70
2022-12-09T01:41:36.009Z,26.54
2022-12-09T01:42:36.124Z,25.78
2022-12-09T01:43:35.905Z,25.78
2022-12-09T01:44:35.877Z,25.49
2022-12-09T01:45:35.862Z,25.68
2022-12-09T01:46:35.899Z,24.55
2022-12-09T01:47:35.890Z,23.69
2022-12-09T01:48:35.786Z,23.32
2022-12-09T01:49:35.770Z,22.18
2022-12-09T01:50:35.700Z,22.08
2022-12-09T01:51:35.673Z,20.76
2022-12-09T01:52:35.813Z,20.09
2022-12-09T01:53:35.635Z,19.34
2022-12-09T01:54:35.878Z,18.20
2022-12-09T01:55:35.565Z,17.72
2022-12-09T01:56:35.549Z,17.16
2022-12-09T01:57:35.817Z,16.58
2022-12-09T01:58:35.544Z,16.30
2022-12-09T01:59:35.765Z,15.92
2022-12-09T02:00:35.479Z,16.11
2022-12-09T02:01:35.802Z,15.83
2022-12-09T02:02:35.613Z,16.22
2022-12-09T02:03:35.663Z,16.31
2022-12-09T02:04:35.818Z,16.88
2022-12-09T02:05:35.488Z,17.26
2022-12-09T02:06:35.336Z,18.02
2022-12-09T02:07:35.529Z,18.96
2022-12-09T02:08:35.407Z,20.29
2022-12-09T02:09:35.588Z,22.37
2022-12-09T02:10:35.347Z,24.07
2022-12-09T02:11:35.169Z,24.27
2022-12-09T02:12:35.143Z,24.46
2022-12-09T02:13:35.121Z,24.46
2022-12-09T02:14:35.279Z,24.07
2022-12-09T02:15:35.068Z,23.22
2022-12-09T02:16:35.109Z,22.46
2022-12-09T02:17:35.164Z,22.56
2022-12-09T02:18:35.008Z,22.75
2022-12-09T02:19:34.988Z,23.32
2022-12-09T02:20:35.003Z,23.22
2022-12-09T02:21:35.129Z,21.99
2022-12-09T02:22:34.892Z,21.23
2022-12-09T02:23:35.051Z,20.66
2022-12-09T02:24:34.907Z,19.53
2022-12-09T02:25:34.816Z,19.24
2022-12-09T02:26:34.791Z,17.35
2022-12-09T02:27:34.766Z,16.49
2022-12-09T02:28:34.741Z,16.02
2022-12-09T02:29:34.713Z,14.59
2022-12-09T02:30:34.717Z,13.45
2022-12-09T02:31:34.746Z,12.41
2022-12-09T02:32:35.100Z,11.85
2022-12-09T02:33:34.691Z,11.55
2022-12-09T02:34:34.736Z,10.71
2022-12-09T02:35:34.782Z,10.33
2022-12-09T02:36:34.546Z,10.33
2022-12-09T02:37:34.509Z,10.33
2022-12-09T02:38:34.672Z,10.33
2022-12-09T02:39:34.461Z,9.76
2022-12-09T02:40:34.697Z,10.14
2022-12-09T02:41:34.632Z,10.42
2022-12-09T02:42:34.638Z,10.33
2022-12-09T02:43:34.357Z,10.61
2022-12-09T02:44:34.335Z,10.24
2022-12-09T02:45:34.668Z,10.05
2022-12-09T02:46:34.406Z,9.57
2022-12-09T02:47:34.823Z,9.48
2022-12-09T02:48:34.276Z,8.62
2022-12-09T02:49:34.394Z,9.10
2022-12-09T02:50:34.189Z,10.80
2022-12-09T02:51:34.154Z,12.60
2022-12-09T02:52:34.133Z,13.17
2022-12-09T02:53:34.274Z,13.36
2022-12-09T02:54:34.355Z,14.31
2022-12-09T02:55:34.297Z,14.12
2022-12-09T02:56:34.275Z,14.12
2022-12-09T02:57:34.006Z,13.54
2022-12-09T02:58:34.013Z,12.79
2022-12-09T02:59:33.951Z,12.22
2022-12-09T03:00:34.193Z,11.66
2022-12-09T03:01:33.951Z,10.14
2022-12-09T03:02:34.389Z,10.33
2022-12-09T03:03:34.310Z,10.71
2022-12-09T03:04:33.927Z,10.04
2022-12-09T03:05:34.079Z,10.33
2022-12-09T03:06:33.779Z,10.42
2022-12-09T03:07:33.747Z,10.71
2022-12-09T03:08:34.087Z,10.33
2022-12-09T03:09:34.025Z,10.05
2022-12-09T03:10:33.798Z,10.23
2022-12-09T03:11:33.657Z,10.99
2022-12-09T03:12:33.696Z,10.42
2022-12-09T03:13:33.932Z,9.75
2022-12-09T03:14:33.604Z,9.47
2022-12-09T03:15:33.548Z,8.81
2022-12-09T03:16:33.623Z,7.96
2022-12-09T03:17:33.616Z,7.96
2022-12-09T03:18:33.511Z,7.20
2022-12-09T03:19:33.785Z,8.05
2022-12-09T03:20:33.458Z,8.72
2022-12-09T03:21:33.436Z,8.81
2022-12-09T03:22:33.373Z,9.75
2022-12-09T03:23:33.341Z,9.94
2022-12-09T03:24:33.354Z,9.56
2022-12-09T03:25:33.292Z,8.81
2022-12-09T03:26:33.273Z,8.62
2022-12-09T03:27:33.249Z,8.62
2022-12-09T03:28:33.549Z,8.15
2022-12-09T03:29:33.197Z,7.76
2022-12-09T03:30:33.380Z,7.10
2022-12-09T03:31:33.499Z,7.10
2022-12-09T03:32:33.210Z,7.10
2022-12-09T03:33:33.471Z,7.39
2022-12-09T03:34:33.442Z,6.63
2022-12-09T03:35:33.038Z,5.58
2022-12-09T03:36:33.097Z,5.40
2022-12-09T03:37:32.987Z,5.30
2022-12-09T03:38:33.220Z,5.21
2022-12-09T03:39:32.989Z,4.93
2022-12-09T03:40:33.047Z,4.45
2022-12-09T03:41:32.890Z,4.64
2022-12-09T03:42:33.040Z,4.55
2022-12-09T03:43:32.834Z,4.17
2022-12-09T03:44:33.107Z,3.41
2022-12-09T03:45:33.252Z,3.03
2022-12-09T03:46:33.070Z,2.08
2022-12-09T03:47:32.894Z,1.51
2022-12-09T03:48:33.034Z,1.61
2022-12-09T03:49:32.697Z,1.42
2022-12-09T03:50:32.727Z,1.51
2022-12-09T03:51:32.832Z,2.37
2022-12-09T03:52:32.968Z,3.03
2022-12-09T03:53:32.859Z,2.75
2022-12-09T03:54:32.798Z,3.22
2022-12-09T03:55:32.533Z,3.22
2022-12-09T03:56:32.855Z,3.22
2022-12-09T03:57:32.474Z,2.84
2022-12-09T03:58:32.725Z,3.41
2022-12-09T03:59:32.437Z,3.59
2022-12-09T04:00:32.700Z,4.26
2022-12-09T04:01:32.913Z,3.78
2022-12-09T04:02:32.485Z,3.78
2022-12-09T04:03:32.865Z,3.88
2022-12-09T04:04:32.339Z,3.78
2022-12-09T04:05:32.603Z,3.98
2022-12-09T04:06:32.277Z,4.36
2022-12-09T04:07:32.220Z,4.45
2022-12-09T04:08:32.296Z,4.55
2022-12-09T04:09:32.484Z,4.45
2022-12-09T04:10:32.150Z,4.36
2022-12-09T04:11:32.123Z,4.55
2022-12-09T04:12:32.100Z,4.17
2022-12-09T04:13:32.072Z,4.36
2022-12-09T04:14:32.335Z,4.83
2022-12-09T04:15:32.208Z,4.64
2022-12-09T04:16:32.410Z,4.55
2022-12-09T04:17:32.070Z,4.64
2022-12-09T04:18:32.170Z,3.98
2022-12-09T04:19:32.018Z,6.07
2022-12-09T04:20:32.097Z,7.20
2022-12-09T04:21:31.868Z,8.81
2022-12-09T04:22:31.884Z,8.81
2022-12-09T04:23:31.858Z,8.72
2022-12-09T04:24:31.790Z,8.34
2022-12-09T04:25:32.044Z,8.34
2022-12-09T04:26:31.746Z,9.38
2022-12-09T04:27:31.915Z,10.42
2022-12-09T04:28:31.819Z,10.80
2022-12-09T04:29:31.930Z,10.61
2022-12-09T04:30:32.099Z,11.09
2022-12-09T04:31:31.693Z,10.80
2022-12-09T04:32:32.067Z,10.52
2022-12-09T04:33:31.854Z,10.24
2022-12-09T04:34:31.555Z,11.75
2022-12-09T04:35:31.514Z,11.94
2022-12-09T04:36:31.792Z,12.04
2022-12-09T04:37:31.546Z,12.23
2022-12-09T04:38:31.593Z,11.85
2022-12-09T04:39:31.452Z,11.66
2022-12-09T04:40:31.386Z,10.99
2022-12-09T04:41:31.364Z,10.61
2022-12-09T04:42:31.342Z,10.61
2022-12-09T04:43:31.500Z,10.33
2022-12-09T04:44:31.592Z,10.80
2022-12-09T04:45:31.263Z,11.09
2022-12-09T04:46:31.264Z,11.85
2022-12-09T04:47:31.336Z,11.85
2022-12-09T04:48:31.185Z,12.04
2022-12-09T04:49:31.156Z,12.32
2022-12-09T04:50:31.135Z,12.51
2022-12-09T04:51:37.506Z,12.23
2022-12-09T04:52:31.090Z,12.98
2022-12-09T04:53:31.114Z,12.89
2022-12-09T04:54:31.249Z,13.75
2022-12-09T04:55:31.238Z,14.50
2022-12-09T04:56:31.024Z,15.45
2022-12-09T04:57:30.975Z,16.02
2022-12-09T04:58:31.203Z,16.30
2022-12-09T04:59:30.987Z,17.35
2022-12-09T05:00:31.224Z,17.82
2022-12-09T05:01:31.774Z,18.01
2022-12-09T05:02:30.926Z,17.82
2022-12-09T05:03:30.969Z,17.16
2022-12-09T05:04:31.272Z,16.97
2022-12-09T05:05:31.028Z,16.68
2022-12-09T05:06:31.230Z,15.73
2022-12-09T05:07:31.167Z,15.64
2022-12-09T05:08:31.864Z,15.73
2022-12-09T05:09:31.070Z,16.03
2022-12-09T05:10:30.964Z,16.12
2022-12-09T05:11:30.729Z,16.60
2022-12-09T05:12:30.817Z,16.39
2022-12-09T05:13:30.885Z,16.31
2022-12-09T05:14:30.795Z,16.88
2022-12-09T05:15:30.571Z,17.26
2022-12-09T05:16:30.609Z,17.72
2022-12-09T05:17:30.610Z,18.30
2022-12-09T05:18:30.707Z,18.40
2022-12-09T05:19:30.854Z,18.68
2022-12-09T05:20:30.626Z,18.77
2022-12-09T05:21:30.832Z,18.96
2022-12-09T05:22:30.416Z,19.73
2022-12-09T05:23:30.330Z,20.20
2022-12-09T05:24:30.286Z,20.57
2022-12-09T05:25:30.340Z,20.29
2022-12-09T05:26:30.636Z,20.28
2022-12-09T05:27:30.411Z,20.09
2022-12-09T05:28:30.266Z,19.25
2022-12-09T05:29:30.504Z,19.15
2022-12-09T05:30:30.176Z,18.68
2022-12-09T05:31:30.416Z,18.68
2022-12-09T05:32:30.171Z,18.40
2022-12-09T05:33:30.368Z,18.59
2022-12-09T05:34:30.182Z,18.77
2022-12-09T05:35:30.054Z,18.86
2022-12-09T05:36:30.407Z,18.49
2022-12-09T05:37:30.262Z,19.15
2022-12-09T05:38:30.034Z,19.54
2022-12-09T05:39:30.354Z,20.01
2022-12-09T05:40:29.878Z,20.39
2022-12-09T05:41:29.862Z,20.57
2022-12-09T05:42:29.994Z,21.24
2022-12-09T05:43:30.156Z,22.27
2022-12-09T05:44:30.164Z,23.22
2022-12-09T05:45:30.126Z,23.41
2022-12-09T05:46:29.995Z,23.60
2022-12-09T05:47:29.993Z,23.32
2022-12-09T05:48:30.186Z,21.99
2022-12-09T05:49:30.296Z,20.85
2022-12-09T05:50:29.789Z,19.43
2022-12-09T05:51:29.992Z,18.96
2022-12-09T05:52:29.685Z,17.54
2022-12-09T05:53:29.798Z,17.35
2022-12-09T05:54:29.655Z,16.87
2022-12-09T05:55:29.864Z,16.39
2022-12-09T05:56:30.035Z,16.39
2022-12-09T05:57:29.723Z,16.30
2022-12-09T05:58:29.647Z,16.49
2022-12-09T05:59:29.483Z,16.49
2022-12-09T06:00:29.758Z,16.78
2022-12-09T06:01:29.952Z,17.35
2022-12-09T06:02:29.603Z,17.91
2022-12-09T06:03:29.838Z,17.16
2022-12-09T06:04:29.807Z,16.20
2022-12-09T06:05:29.515Z,15.73
2022-12-09T06:06:29.785Z,15.64
2022-12-09T06:07:29.532Z,16.02
2022-12-09T06:08:29.702Z,16.20
2022-12-09T06:09:29.336Z,16.20
2022-12-09T06:10:29.598Z,16.20
2022-12-09T06:11:29.567Z,16.20
2022-12-09T06:12:29.258Z,15.92
2022-12-09T06:13:29.229Z,15.83
2022-12-09T06:14:29.204Z,15.92
2022-12-09T06:15:33.086Z,16.02
2022-12-09T06:16:29.233Z,14.31
2022-12-09T06:17:29.331Z,13.17
2022-12-09T06:18:29.123Z,11.65
2022-12-09T06:19:29.088Z,9.56
2022-12-09T06:20:29.212Z,8.05
2022-12-09T06:21:29.194Z,7.20
2022-12-09T06:22:29.266Z,6.54
2022-12-09T06:23:28.885Z,5.30
2022-12-09T06:24:28.767Z,4.64
2022-12-09T06:25:29.105Z,3.88
2022-12-09T06:26:28.962Z,3.22
2022-12-09T06:27:28.812Z,2.75
2022-12-09T06:28:29.025Z,1.98
2022-12-09T06:29:28.857Z,1.61
2022-12-09T06:30:28.664Z,1.51
2022-12-09T06:31:29.107Z,0.95
2022-12-09T06:32:28.799Z,0.85
2022-12-09T06:33:53.634Z,0.09
2022-12-09T06:34:28.992Z,0.00
2022-12-09T06:35:28.663Z,0.00
2022-12-09T06:36:29.108Z,0.00
2022-12-09T06:37:28.638Z,0.00
2022-12-09T06:38:28.461Z,0.00
2022-12-09T06:39:28.544Z,0.00
2022-12-09T06:40:28.429Z,0.00
2022-12-09T06:41:28.350Z,0.00
2022-12-09T06:42:28.424Z,0.00
2022-12-09T06:43:28.381Z,0.00
2022-12-09T06:44:28.553Z,0.00
2022-12-09T06:45:28.301Z,0.28
2022-12-09T06:46:28.571Z,0.47
2022-12-09T06:47:28.423Z,0.66
2022-12-09T06:48:28.658Z,1.51
2022-12-09T06:49:28.549Z,1.51
2022-12-09T06:50:28.196Z,2.37
2022-12-09T06:51:28.255Z,2.65
2022-12-09T06:52:28.215Z,3.41
2022-12-09T06:53:28.312Z,3.98
2022-12-09T06:54:28.004Z,4.26
2022-12-09T06:55:28.116Z,4.74
2022-12-09T06:56:28.328Z,5.02
2022-12-09T06:57:28.063Z,5.11
2022-12-09T06:58:27.922Z,6.73
2022-12-09T06:59:28.159Z,7.48
2022-12-09T07:00:28.380Z,7.77
2022-12-09T07:01:28.110Z,7.96
2022-12-09T07:02:31.336Z,7.68
2022-12-09T07:03:28.246Z,7.87
2022-12-09T07:04:28.149Z,8.15
2022-12-09T07:05:27.993Z,8.15
2022-12-09T07:06:28.001Z,8.72
2022-12-09T07:07:27.716Z,9.48
2022-12-09T07:08:27.736Z,9.95
2022-12-09T07:09:27.863Z,9.95
2022-12-09T07:10:28.138Z,10.24
2022-12-09T07:11:28.179Z,10.42
2022-12-09T07:12:27.874Z,11.09
2022-12-09T07:13:27.650Z,11.28
2022-12-09T07:14:27.634Z,11.94
2022-12-09T07:15:27.592Z,12.32
2022-12-09T07:16:27.745Z,12.70
2022-12-09T07:17:28.029Z,13.27
2022-12-09T07:18:27.693Z,12.89
2022-12-09T07:19:27.659Z,13.36
2022-12-09T07:20:27.531Z,13.55
2022-12-09T07:21:27.640Z,13.55
2022-12-09T07:22:27.759Z,14.03
2022-12-09T07:23:27.320Z,14.40
2022-12-09T07:24:27.265Z,15.26
2022-12-09T07:25:27.315Z,15.83
2022-12-09T07:26:27.398Z,15.83
2022-12-09T07:27:27.411Z,15.83
2022-12-09T07:28:27.525Z,15.55
2022-12-09T07:29:27.214Z,16.02
2022-12-09T07:30:27.195Z,16.03
2022-12-09T07:31:27.573Z,16.12
2022-12-09T07:32:27.352Z,15.92
2022-12-09T07:33:27.118Z,16.02
2022-12-09T07:34:27.512Z,16.31
2022-12-09T07:35:27.074Z,16.30
2022-12-09T07:36:27.169Z,16.87
2022-12-09T07:37:27.027Z,16.88
2022-12-09T07:38:27.026Z,17.35
2022-12-09T07:39:26.930Z,17.82
2022-12-09T07:40:27.195Z,18.40
2022-12-09T07:41:27.309Z,18.67
2022-12-09T07:42:26.956Z,19.06
2022-12-09T07:43:27.068Z,18.77
2022-12-09T07:44:26.836Z,18.77
2022-12-09T07:45:26.966Z,18.77
2022-12-09T07:46:26.798Z,19.15
2022-12-09T07:47:27.113Z,19.15
2022-12-09T07:48:26.949Z,19.34
2022-12-09T07:49:26.775Z,19.71
2022-12-09T07:50:26.877Z,19.54
2022-12-09T07:51:26.848Z,19.73
2022-12-09T07:52:26.561Z,19.05
2022-12-09T07:53:26.601Z,19.44
2022-12-09T07:54:26.574Z,19.06
2022-12-09T07:55:26.876Z,19.15
2022-12-09T07:56:26.870Z,18.96
2022-12-09T07:57:26.758Z,19.63
2022-12-09T07:58:26.409Z,20.39
2022-12-09T07:59:26.567Z,20.48
2022-12-09T08:00:26.506Z,20.29
2022-12-09T08:01:26.751Z,20.96
2022-12-09T08:02:26.413Z,21.24
2022-12-09T08:03:26.381Z,22.00
2022-12-09T08:04:26.469Z,22.57
2022-12-09T08:05:26.508Z,23.33
2022-12-09T08:06:26.993Z,23.33
2022-12-09T08:07:26.533Z,23.33
2022-12-09T08:08:26.593Z,23.52
2022-12-09T08:09:26.318Z,23.43
2022-12-09T08:10:26.313Z,24.66
2022-12-09T08:11:26.488Z,24.75
2022-12-09T08:12:26.139Z,24.66
2022-12-09T08:13:26.071Z,24.66
2022-12-09T08:14:26.444Z,24.28
2022-12-09T08:15:26.183Z,23.80
2022-12-09T08:16:26.513Z,23.99
2022-12-09T08:17:26.025Z,24.08
2022-12-09T08:18:26.009Z,24.37
2022-12-09T08:19:26.282Z,25.13
2022-12-09T08:20:29.319Z,25.42
2022-12-09T08:21:26.272Z,25.79
2022-12-09T08:22:26.086Z,25.60
2022-12-09T08:23:25.764Z,25.23
2022-12-09T08:24:26.084Z,24.85
2022-12-09T08:25:25.856Z,25.51
2022-12-09T08:26:25.734Z,25.60
2022-12-09T08:27:26.120Z,25.32
2022-12-09T08:28:26.165Z,24.94
2022-12-09T08:29:25.786Z,25.59
2022-12-09T08:30:26.282Z,26.82
2022-12-09T08:31:25.793Z,26.92
2022-12-09T08:32:25.820Z,26.07
2022-12-09T08:33:25.743Z,24.56
2022-12-09T08:34:25.707Z,24.08
2022-12-09T08:35:25.631Z,23.04
2022-12-09T08:36:25.654Z,25.21
2022-12-09T08:37:25.454Z,25.68
2022-12-09T08:38:25.747Z,25.02
2022-12-09T08:39:25.724Z,24.65
2022-12-09T08:40:25.564Z,23.50
2022-12-09T08:41:25.698Z,22.65
2022-12-09T08:42:25.533Z,21.80
2022-12-09T08:43:25.273Z,20.85
2022-12-09T08:44:25.337Z,20.66
2022-12-09T08:45:25.614Z,20.85
2022-12-09T08:46:25.685Z,21.33
2022-12-09T08:47:25.358Z,22.08
2022-12-09T08:48:25.571Z,21.89
2022-12-09T08:49:25.333Z,21.23
2022-12-09T08:50:25.193Z,21.14
2022-12-09T08:51:25.499Z,21.23
2022-12-09T08:52:25.435Z,21.04
2022-12-09T08:53:25.172Z,20.76
2022-12-09T08:54:25.597Z,21.04
2022-12-09T08:55:25.314Z,21.04
2022-12-09T08:56:25.166Z,20.47
2022-12-09T08:57:25.134Z,20.28
2022-12-09T08:58:25.114Z,20.09
2022-12-09T08:59:25.367Z,20.28
2022-12-09T09:00:25.049Z,20.47
2022-12-09T09:01:25.076Z,20.57
2022-12-09T09:02:25.407Z,22.65
2022-12-09T09:03:25.363Z,23.22
2022-12-09T09:04:25.210Z,23.50
2022-12-09T09:05:25.005Z,23.50
2022-12-09T09:06:25.118Z,23.13
2022-12-09T09:07:24.912Z,22.27
2022-12-09T09:08:25.104Z,23.13
2022-12-09T09:09:24.804Z,23.32
2022-12-09T09:10:25.028Z,23.22
2022-12-09T09:11:25.117Z,23.13
2022-12-09T09:12:24.753Z,22.65
2022-12-09T09:13:24.569Z,22.27
2022-12-09T09:14:24.486Z,21.23
2022-12-09T09:15:24.559Z,21.14
2022-12-09T09:16:24.760Z,20.57
2022-12-09T09:17:24.796Z,20.85
2022-12-09T09:18:24.439Z,20.85
2022-12-09T09:19:24.889Z,20.57
2022-12-09T09:20:24.815Z,20.09
2022-12-09T09:21:24.414Z,19.81
2022-12-09T09:22:24.339Z,19.53
2022-12-09T09:23:24.356Z,22.46
2022-12-09T09:24:24.501Z,24.07
2022-12-09T09:25:24.238Z,24.27
2022-12-09T09:26:24.625Z,23.69
2022-12-09T09:27:24.392Z,23.22
2022-12-09T09:28:30.482Z,22.37
2022-12-09T09:29:24.797Z,22.08
2022-12-09T09:30:24.549Z,21.99
2022-12-09T09:31:24.259Z,22.37
2022-12-09T09:32:24.406Z,22.95
2022-12-09T09:33:24.284Z,23.88
2022-12-09T09:34:24.302Z,23.71
2022-12-09T09:35:24.071Z,23.69
2022-12-09T09:36:24.650Z,23.71
2022-12-09T09:37:24.003Z,24.37
2022-12-09T09:38:24.366Z,24.85
2022-12-09T09:39:24.017Z,25.60
2022-12-09T09:40:24.234Z,26.17
2022-12-09T09:41:24.007Z,26.84
2022-12-09T09:42:24.234Z,27.31
2022-12-09T09:43:23.874Z,27.78
2022-12-09T09:44:24.089Z,28.07
2022-12-09T09:45:24.092Z,27.98
2022-12-09T09:46:24.232Z,27.78
2022-12-09T09:47:24.250Z,27.88
2022-12-09T09:48:23.885Z,29.21
2022-12-09T09:49:23.876Z,30.54
2022-12-09T09:50:24.121Z,31.47
2022-12-09T09:51:23.658Z,31.87
2022-12-09T09:52:23.988Z,30.63
2022-12-09T09:53:23.543Z,30.54
2022-12-09T09:54:23.585Z,30.62
2022-12-09T09:55:23.914Z,30.91
2022-12-09T09:56:23.487Z,30.90
2022-12-09T09:57:23.520Z,30.43
2022-12-09T09:58:23.877Z,29.40
2022-12-09T09:59:23.803Z,28.07
2022-12-09T10:00:24.651Z,27.40
2022-12-09T10:01:23.902Z,27.31
2022-12-09T10:02:24.075Z,27.59
2022-12-09T10:03:23.994Z,28.26
2022-12-09T10:04:23.740Z,27.88
2022-12-09T10:05:23.994Z,27.58
2022-12-09T10:06:23.902Z,28.07
2022-12-09T10:07:23.882Z,29.57
2022-12-09T10:08:23.772Z,29.76
2022-12-09T10:09:23.766Z,29.48
2022-12-09T10:10:23.404Z,28.91
2022-12-09T10:11:23.429Z,27.77
2022-12-09T10:12:23.613Z,26.35
2022-12-09T10:13:23.340Z,25.78
2022-12-09T10:14:23.388Z,24.55
2022-12-09T10:15:23.291Z,23.88
2022-12-09T10:16:23.091Z,23.03
2022-12-09T10:17:23.192Z,22.46
2022-12-09T10:18:22.970Z,22.46
2022-12-09T10:19:23.596Z,21.89
2022-12-09T10:20:23.413Z,21.51
2022-12-09T10:21:23.205Z,22.08
2022-12-09T10:22:23.114Z,22.18
2022-12-09T10:23:23.400Z,21.53
2022-12-09T10:24:23.181Z,21.62
2022-12-09T10:25:23.069Z,21.24
2022-12-09T10:26:22.908Z,22.00
2022-12-09T10:27:23.149Z,23.04
2022-12-09T10:28:23.015Z,23.71
2022-12-09T10:29:22.680Z,24.75
2022-12-09T10:30:23.106Z,25.60
2022-12-09T10:31:22.763Z,26.75
2022-12-09T10:32:23.027Z,31.20
2022-12-09T10:33:22.727Z,31.39
2022-12-09T10:34:22.978Z,31.96
2022-12-09T10:35:22.698Z,31.96
2022-12-09T10:36:22.751Z,32.24
2022-12-09T10:37:22.428Z,32.53
2022-12-09T10:38:22.864Z,32.34
2022-12-09T10:39:22.782Z,31.48
2022-12-09T10:40:22.929Z,30.54
2022-12-09T10:41:22.504Z,29.59
2022-12-09T10:42:22.697Z,29.32
2022-12-09T10:43:22.262Z,29.22
2022-12-09T10:44:22.473Z,29.60
2022-12-09T10:45:22.383Z,30.36
2022-12-09T10:46:23.103Z,30.74
2022-12-09T10:47:22.327Z,31.31
2022-12-09T10:48:22.561Z,31.88
2022-12-09T10:49:22.873Z,32.83
2022-12-09T10:50:22.343Z,33.87
2022-12-09T10:51:22.829Z,35.49
2022-12-09T10:52:22.275Z,36.05
2022-12-09T10:53:22.107Z,36.72
2022-12-09T10:54:22.268Z,38.43
2022-12-09T10:55:22.288Z,38.62
2022-12-09T10:56:22.095Z,39.18
2022-12-09T10:57:22.133Z,40.14
2022-12-09T10:58:21.933Z,41.66
2022-12-09T10:59:22.401Z,42.60
2022-12-09T11:00:22.623Z,43.93
2022-12-09T11:01:22.121Z,45.36
2022-12-09T11:02:22.153Z,46.11
2022-12-09T11:03:21.924Z,48.11
2022-12-09T11:04:21.964Z,49.34
2022-12-09T11:05:21.969Z,50.29
2022-12-09T11:06:22.110Z,50.20
2022-12-09T11:07:21.947Z,50.38
2022-12-09T11:08:22.091Z,48.30
2022-12-09T11:09:22.427Z,46.88
2022-12-09T11:10:22.281Z,45.83
2022-12-09T11:11:21.777Z,44.69
2022-12-09T11:12:22.001Z,44.50
2022-12-09T11:13:21.684Z,45.64
2022-12-09T11:14:21.712Z,46.59
2022-12-09T11:15:21.961Z,47.06
2022-12-09T11:16:22.117Z,48.77
2022-12-09T11:17:21.831Z,48.68
2022-12-09T11:18:22.067Z,50.20
2022-12-09T11:19:21.536Z,49.05
2022-12-09T11:20:21.559Z,50.38
2022-12-09T11:21:21.910Z,50.76
2022-12-09T11:22:21.433Z,50.01
2022-12-09T11:23:21.500Z,49.82
2022-12-09T11:24:21.402Z,48.86
2022-12-09T11:25:21.778Z,49.43
2022-12-09T11:26:21.722Z,50.67
2022-12-09T11:27:21.220Z,50.76
2022-12-09T11:28:21.585Z,52.19
2022-12-09T11:29:22.161Z,52.95
2022-12-09T11:30:21.935Z,54.18
2022-12-09T11:31:30.222Z,54.37
2022-12-09T11:32:21.366Z,54.85
2022-12-09T11:33:21.237Z,54.85
2022-12-09T11:34:21.522Z,55.13
2022-12-09T11:35:21.484Z,55.13
2022-12-09T11:36:20.955Z,58.73
2022-12-09T11:37:20.924Z,60.35
2022-12-09T11:38:20.909Z,60.06
2022-12-09T11:39:20.880Z,59.30
2022-12-09T11:40:20.864Z,58.99
2022-12-09T11:41:20.835Z,58.17
2022-12-09T11:42:20.835Z,56.43
2022-12-09T11:43:20.783Z,54.75
2022-12-09T11:44:20.763Z,54.06
2022-12-09T11:45:20.732Z,53.14
2022-12-09T11:46:20.741Z,52.00
2022-12-09T11:47:20.683Z,52.00
2022-12-09T11:48:29.871Z,51.43
2022-12-09T11:49:20.638Z,51.33
2022-12-09T11:50:20.756Z,50.86
2022-12-09T11:51:20.588Z,50.67
2022-12-09T11:52:20.564Z,50.38
2022-12-09T11:53:20.539Z,50.67
2022-12-09T11:54:20.514Z,51.43
2022-12-09T11:55:20.494Z,51.43
2022-12-09T11:56:20.465Z,51.14
2022-12-09T11:57:20.439Z,52.28
2022-12-09T11:58:20.419Z,52.66
2022-12-09T11:59:20.392Z,53.04
2022-12-09T12:00:20.371Z,58.92
2022-12-09T12:01:20.341Z,60.82
2022-12-09T12:02:20.366Z,58.64
2022-12-09T12:03:20.362Z,58.45
2022-12-09T12:04:20.278Z,58.36
2022-12-09T12:05:21.927Z,56.84
2022-12-09T12:06:20.264Z,57.40
2022-12-09T12:07:20.204Z,55.89
2022-12-09T12:08:20.338Z,54.66
2022-12-09T12:09:20.143Z,52.66
2022-12-09T12:10:20.131Z,53.89
2022-12-09T12:11:20.106Z,54.91
2022-12-09T12:12:20.082Z,54.66
2022-12-09T12:13:20.050Z,52.66
2022-12-09T12:14:20.027Z,52.09
2022-12-09T12:15:20.002Z,52.00
2022-12-09T12:16:19.976Z,52.00
2022-12-09T12:17:19.986Z,54.46
2022-12-09T12:18:19.928Z,54.66
2022-12-09T12:19:19.897Z,55.04
2022-12-09T12:20:19.879Z,54.27
2022-12-09T12:21:19.860Z,52.85
2022-12-09T12:22:19.847Z,52.47
2022-12-09T12:23:19.800Z,52.00
2022-12-09T12:24:19.780Z,50.86
2022-12-09T12:25:20.078Z,50.67
2022-12-09T12:26:19.738Z,51.90
2022-12-09T12:27:19.710Z,53.61
2022-12-09T12:28:19.687Z,56.08
2022-12-09T12:29:19.660Z,56.27
2022-12-09T12:30:19.637Z,58.54
2022-12-09T12:31:19.635Z,62.05
2022-12-09T12:32:19.590Z,65.56
2022-12-09T12:34:26.712Z,65.56
2022-12-09T12:35:19.519Z,65.09
2022-12-09T12:36:19.501Z,65.69
2022-12-09T12:37:19.461Z,72.06
2022-12-09T12:38:19.472Z,71.67
2022-12-09T12:39:19.411Z,71.11
2022-12-09T12:40:23.453Z,70.35
2022-12-09T12:41:19.367Z,70.06
2022-12-09T12:42:19.347Z,70.73
2022-12-09T12:43:19.317Z,71.11
2022-12-09T12:44:19.297Z,71.67
2022-12-09T12:45:19.271Z,71.67
2022-12-09T12:46:19.347Z,73.00
2022-12-09T12:47:19.224Z,76.04
2022-12-09T12:48:19.238Z,75.95
2022-12-09T12:49:19.178Z,76.32
2022-12-09T12:50:19.152Z,75.38
2022-12-09T12:51:19.127Z,74.68
2022-12-09T12:52:53.804Z,73.82
2022-12-09T12:53:19.076Z,74.30
2022-12-09T12:54:19.173Z,76.76
2022-12-09T12:55:19.036Z,77.24
2022-12-09T12:56:19.008Z,74.77
2022-12-09T12:57:18.983Z,73.92